Terminal Aerodrome Forecast
Issued by NWS Charleston, WV

Current Version | Previous Version | Graphics & Text | Print | Product List | Glossary On
Versions: 1 2 3 4 5 6 7 8 9 10 11 12 13 14 15 16 17 18 19 20 21 22 23 24
000
FTUS41 KRLX 060539
TAFBKW
TAF
KBKW 060539Z 0606/0706 15005KT P6SM BKN015 BKN035
     FM060800 00000KT 6SM BR OVC008
     FM061100 21004KT 5SM BR OVC003
     FM061400 25005KT 5SM SHRA OVC008
     FM061600 26005KT 4SM SHRA VCTS OVC008CB
     FM061900 27005KT P6SM VCSH BKN015
     FM070300 00000KT P6SM BKN035=

USA.gov is the U.S. government's official web portal to all federal, state and local government web resources and services.